Time;durP1;ratioP1;P1;durP2;ratioP2;P2;SDS_P1;SDS_P2;PMS_P1;PMS_P2;Temp;Humidity;BMP_temperature;BMP_pressure;BME280_temperature;BME280_humidity;BME280_pressure;Samples;Min_cycle;Max_cycle;Signal;HPM_P1;HPM_P2
2023/02/17 00:01:27;;;;;;;16.55;8.23;;;;;;;-2.40;51.22;99807.97;4745207;30;20051;-78
2023/02/17 00:03:53;;;;;;;13.68;7.97;;;;;;;-2.39;51.48;99792.22;4774875;30;20091;-78
2023/02/17 00:06:22;;;;;;;20.17;8.80;;;;;;;-2.42;51.07;99796.66;4790836;29;20044;-78
2023/02/17 00:08:48;;;;;;;21.50;8.88;;;;;;;-2.42;51.66;99789.66;4744961;30;20044;-78
2023/02/17 00:11:14;;;;;;;18.08;8.43;;;;;;;-2.45;51.54;99779.25;4774584;30;20598;-77
2023/02/17 00:13:41;;;;;;;17.90;8.70;;;;;;;-2.36;51.57;99786.94;4790598;30;20055;-78
2023/02/17 00:16:14;;;;;;;16.75;8.95;;;;;;;-2.31;51.20;99782.44;4790638;30;20055;-77
2023/02/17 00:18:40;;;;;;;18.88;9.45;;;;;;;-2.31;51.42;99774.59;4789287;30;20504;-78
2023/02/17 00:21:17;;;;;;;19.77;9.07;;;;;;;-2.49;51.54;99765.34;4774448;30;20043;-78
2023/02/17 00:23:43;;;;;;;21.52;9.98;;;;;;;-2.86;52.91;99770.44;4789348;29;20059;-77
2023/02/17 00:26:09;;;;;;;32.90;10.50;;;;;;;-3.11;53.75;99774.41;4759671;30;20043;-78
2023/02/17 00:28:36;;;;;;;38.55;12.05;;;;;;;-3.19;53.71;99771.94;4790866;30;20054;-79
2023/02/17 00:31:10;;;;;;;27.65;10.88;;;;;;;-3.49;54.61;99753.25;4774340;30;20047;-78
2023/02/17 00:33:36;;;;;;;31.40;10.35;;;;;;;-3.49;55.40;99755.03;4790400;29;20051;-78
2023/02/17 00:36:06;;;;;;;29.70;10.48;;;;;;;-3.73;55.94;99764.94;4774005;30;20066;-79
2023/02/17 00:38:33;;;;;;;30.83;10.05;;;;;;;-3.87;56.29;99755.59;4773996;29;20147;-79
2023/02/17 00:40:58;;;;;;;33.95;9.65;;;;;;;-3.89;56.58;99760.84;4759206;30;20519;-79
2023/02/17 00:43:24;;;;;;;25.30;10.55;;;;;;;-4.02;56.79;99761.94;4790128;29;20047;-79
2023/02/17 00:45:53;;;;;;;18.35;9.13;;;;;;;-4.03;56.99;99765.41;4790208;29;20139;-79
2023/02/17 00:48:20;;;;;;;32.53;10.70;;;;;;;-4.04;57.27;99764.53;4759302;30;20134;-79
2023/02/17 00:50:46;;;;;;;28.00;10.10;;;;;;;-4.10;57.49;99754.19;4774036;29;20124;-79
2023/02/17 00:53:12;;;;;;;30.38;10.40;;;;;;;-4.11;57.39;99756.81;4774562;29;20051;-79
2023/02/17 00:55:40;;;;;;;36.28;10.15;;;;;;;-4.09;56.96;99757.69;4788617;30;20062;-77
2023/02/17 00:58:05;;;;;;;27.67;12.07;;;;;;;-4.07;57.03;99742.84;4789887;30;20086;-77
2023/02/17 01:00:31;;;;;;;26.50;11.07;;;;;;;-3.98;57.05;99750.56;4773916;30;20079;-79
2023/02/17 01:02:59;;;;;;;26.48;10.63;;;;;;;-4.02;56.81;99746.25;4773957;30;20058;-78
2023/02/17 01:05:25;;;;;;;29.83;11.70;;;;;;;-4.07;56.74;99754.13;4788464;29;20047;-78
2023/02/17 01:07:51;;;;;;;23.20;11.40;;;;;;;-4.15;57.19;99729.91;4773582;30;20047;-77
2023/02/17 01:10:17;;;;;;;25.98;9.30;;;;;;;-4.20;56.99;99734.31;4789746;30;20047;-78
2023/02/17 01:12:42;;;;;;;28.98;12.52;;;;;;;-4.31;57.55;99739.69;4773860;30;20416;-77
2023/02/17 01:15:09;;;;;;;28.00;13.32;;;;;;;-4.40;57.62;99724.13;4773569;30;20047;-78
2023/02/17 01:17:34;;;;;;;41.00;14.60;;;;;;;-4.40;57.65;99734.56;4773659;30;20055;-79
2023/02/17 01:20:01;;;;;;;36.75;14.50;;;;;;;-4.46;57.67;99729.47;4789828;29;20051;-78
2023/02/17 01:22:26;;;;;;;38.72;11.45;;;;;;;-4.53;57.65;99727.81;4773532;30;20485;-77
2023/02/17 01:24:54;;;;;;;46.55;14.82;;;;;;;-4.46;57.52;99724.25;4789315;30;20435;-77
2023/02/17 01:27:20;;;;;;;23.95;10.63;;;;;;;-4.38;57.22;99721.53;4773313;30;20138;-77
2023/02/17 01:29:46;;;;;;;33.90;11.63;;;;;;;-4.43;56.96;99718.97;4758192;30;20051;-77
2023/02/17 01:32:12;;;;;;;31.70;11.70;;;;;;;-4.45;57.26;99712.91;4773234;30;20049;-77
2023/02/17 01:34:38;;;;;;;31.55;11.88;;;;;;;-4.44;56.85;99717.22;4788995;29;20495;-77
2023/02/17 01:37:05;;;;;;;28.67;11.07;;;;;;;-4.56;57.06;99706.97;4773266;30;20522;-78
2023/02/17 01:39:34;;;;;;;24.17;10.88;;;;;;;-4.67;57.43;99701.88;4773084;30;20119;-76
2023/02/17 01:42:00;;;;;;;27.35;8.75;;;;;;;-4.65;57.24;99702.75;4772971;30;20447;-78
2023/02/17 01:44:26;;;;;;;25.73;9.23;;;;;;;-4.66;57.41;99696.66;4743096;30;20051;-78
2023/02/17 01:46:54;;;;;;;21.08;10.45;;;;;;;-4.61;57.16;99698.34;4773132;30;20047;-78
2023/02/17 01:49:30;;;;;;;29.47;10.53;;;;;;;-4.61;57.31;99699.22;4773047;30;20055;-78
2023/02/17 01:52:20;;;;;;;25.83;11.52;;;;;;;-4.59;57.41;99687.00;4758378;30;20058;-78
2023/02/17 01:54:51;;;;;;;32.92;12.43;;;;;;;-4.66;57.55;99690.59;4789002;30;20050;-79
2023/02/17 01:57:20;;;;;;;28.30;10.63;;;;;;;-4.70;57.24;99679.34;4772704;30;20492;-79
2023/02/17 01:59:47;;;;;;;23.27;10.70;;;;;;;-4.67;57.42;99689.69;4758432;29;20047;-79
2023/02/17 02:02:14;;;;;;;29.17;10.20;;;;;;;-4.65;57.26;99690.56;4772596;30;20065;-79
2023/02/17 02:04:44;;;;;;;29.30;10.43;;;;;;;-4.60;57.43;99687.03;4757839;30;20051;-79
2023/02/17 02:07:21;;;;;;;18.55;9.50;;;;;;;-4.50;57.01;99683.41;4772853;30;20134;-78
2023/02/17 02:09:54;;;;;;;25.13;9.30;;;;;;;-4.49;56.72;99688.59;4743226;30;20105;-78
2023/02/17 02:12:27;;;;;;;24.33;9.75;;;;;;;-4.53;56.74;99686.06;4772803;30;20051;-79
2023/02/17 02:14:57;;;;;;;23.08;9.55;;;;;;;-4.60;56.88;99679.19;4772741;30;20051;-78
2023/02/17 02:17:26;;;;;;;23.42;9.98;;;;;;;-4.58;56.83;99680.06;4772333;30;20096;-78
2023/02/17 02:20:25;;;;;;;26.90;9.82;;;;;;;-4.65;56.65;99677.50;4757447;30;20050;-79
2023/02/17 02:23:09;;;;;;;;;;;;;;;-4.67;56.86;99678.41;4787638;29;20149;-77
2023/02/17 02:26:13;;;;;;;34.28;10.43;;;;;;;-4.70;56.98;99676.72;4787453;30;20384;-78
2023/02/17 02:28:47;;;;;;;31.50;10.65;;;;;;;-4.69;56.70;99680.19;4772624;30;20047;-79
2023/02/17 02:31:31;;;;;;;28.63;12.98;;;;;;;-4.72;56.77;99685.44;4790166;30;20047;-78
2023/02/17 02:34:08;;;;;;;33.03;11.07;;;;;;;-4.76;57.13;99671.56;4787539;29;20066;-78
2023/02/17 02:36:57;;;;;;;30.17;9.68;;;;;;;-4.74;57.18;99664.59;4786978;29;20515;-78
2023/02/17 02:39:28;;;;;;;29.52;9.65;;;;;;;-4.95;57.59;99663.13;4772098;30;20134;-77
2023/02/17 02:42:05;;;;;;;34.08;11.57;;;;;;;-4.87;57.37;99660.41;4771901;30;20055;-78
2023/02/17 02:44:31;;;;;;;33.78;10.60;;;;;;;-4.81;57.02;99655.13;4787020;29;20090;-78
2023/02/17 02:47:04;;;;;;;35.00;11.20;;;;;;;-4.86;56.82;99656.91;4742381;30;20043;-79
2023/02/17 02:49:34;;;;;;;46.47;13.05;;;;;;;-4.83;57.06;99667.31;4757144;30;20142;-79
2023/02/17 02:52:32;;;;;;;34.70;11.10;;;;;;;-4.77;56.51;99661.19;4786939;30;20055;-78
2023/02/17 02:55:07;;;;;;;25.13;9.23;;;;;;;-4.86;56.46;99662.13;4771719;30;20051;-78
2023/02/17 02:58:21;;;;;;;31.17;11.23;;;;;;;-4.84;56.60;99665.59;4771636;30;20589;-80
2023/02/17 03:01:12;;;;;;;28.83;9.55;;;;;;;-5.02;56.43;99660.59;4744552;30;20050;-79
2023/02/17 03:03:53;;;;;;;26.02;10.18;;;;;;;-4.94;56.33;99659.63;4757236;30;20051;-79
2023/02/17 03:06:29;;;;;;;21.40;9.90;;;;;;;-4.96;56.47;99655.34;4742255;30;20439;-78
2023/02/17 03:09:06;;;;;;;26.17;10.35;;;;;;;-5.06;56.42;99649.34;4757001;30;20512;-78
2023/02/17 03:11:32;;;;;;;21.10;10.13;;;;;;;-5.16;56.55;99645.97;4772095;30;20069;-78
2023/02/17 03:14:12;;;;;;;19.77;8.70;;;;;;;-5.18;56.61;99650.38;4742279;30;20142;-79
2023/02/17 03:16:40;;;;;;;24.98;9.82;;;;;;;-5.21;56.23;99645.19;4771414;30;20055;-79
2023/02/17 03:19:07;;;;;;;30.88;10.32;;;;;;;-5.22;56.08;99643.47;4787625;30;20516;-78
2023/02/17 03:21:38;;;;;;;30.80;11.15;;;;;;;-5.18;56.61;99644.28;4742183;30;20047;-76
2023/02/17 03:24:05;;;;;;;28.90;10.40;;;;;;;-5.21;56.00;99645.19;4768509;30;20051;-79
2023/02/17 03:26:31;;;;;;;37.40;9.55;;;;;;;-5.13;55.73;99647.69;4783464;29;20047;-78
2023/02/17 03:28:57;;;;;;;31.00;9.77;;;;;;;-5.12;55.46;99633.78;4739963;30;20044;-77
2023/02/17 03:31:23;;;;;;;26.42;9.73;;;;;;;-5.14;55.14;99641.63;4742742;30;20105;-77
2023/02/17 03:33:49;;;;;;;26.73;10.45;;;;;;;-5.22;55.58;99643.47;4773588;30;20051;-78
2023/02/17 03:36:15;;;;;;;18.65;8.15;;;;;;;-5.18;55.61;99639.94;4771728;30;20058;-78
2023/02/17 03:38:41;;;;;;;30.27;9.70;;;;;;;-5.12;55.25;99639.84;4773230;30;20055;-76
2023/02/17 03:41:06;;;;;;;32.33;9.80;;;;;;;-5.16;55.33;99638.16;4757160;30;20062;-78
2023/02/17 03:43:32;;;;;;;25.58;8.90;;;;;;;-5.19;55.09;99640.81;4771828;30;20058;-78
2023/02/17 03:45:58;;;;;;;23.95;8.73;;;;;;;-5.13;55.24;99629.44;4742038;30;20056;-77
2023/02/17 03:48:24;;;;;;;23.15;7.97;;;;;;;-5.08;55.16;99634.59;4786619;30;20063;-79
2023/02/17 03:50:49;;;;;;;28.00;8.80;;;;;;;-4.99;55.12;99634.50;4757348;30;20137;-78
2023/02/17 03:53:15;;;;;;;23.88;9.30;;;;;;;-5.00;54.75;99630.16;4758064;30;20093;-78
2023/02/17 03:55:41;;;;;;;23.80;9.73;;;;;;;-4.97;54.54;99625.75;4773889;30;20047;-80
2023/02/17 03:58:07;;;;;;;37.63;9.15;;;;;;;-4.97;54.57;99624.91;4770809;30;20483;-81
2023/02/17 04:00:33;;;;;;;25.15;8.93;;;;;;;-5.04;54.43;99620.66;4774783;30;20062;-81
2023/02/17 04:02:59;;;;;;;26.40;9.57;;;;;;;-4.94;54.43;99624.88;4791434;29;20047;-77
2023/02/17 04:05:25;;;;;;;33.22;9.18;;;;;;;-4.93;54.75;99631.81;4790751;29;20130;-80
2023/02/17 04:07:50;;;;;;;25.95;9.25;;;;;;;-4.92;54.39;99625.72;4789571;30;20113;-78
2023/02/17 04:10:17;;;;;;;30.27;8.98;;;;;;;-4.89;54.02;99630.88;4790677;29;20055;-77
2023/02/17 04:12:42;;;;;;;24.52;10.20;;;;;;;-4.81;53.63;99616.03;4790479;29;20043;-80
2023/02/17 04:15:11;;;;;;;36.88;9.80;;;;;;;-4.75;53.39;99612.44;4774381;30;20585;-79
2023/02/17 04:17:37;;;;;;;27.30;10.82;;;;;;;-4.72;53.37;99601.97;4774980;30;20516;-79
2023/02/17 04:20:06;;;;;;;34.72;11.55;;;;;;;-4.65;53.09;99604.47;4759296;30;20055;-80
2023/02/17 04:22:31;;;;;;;25.55;10.25;;;;;;;-4.56;52.84;99603.47;4773813;30;20074;-79
2023/02/17 04:24:57;;;;;;;41.78;11.38;;;;;;;-4.54;52.60;99600.88;4789250;29;20055;-79
2023/02/17 04:27:23;;;;;;;50.50;11.10;;;;;;;-4.47;51.92;99598.13;4782735;30;20055;-76
2023/02/17 04:29:50;;;;;;;37.63;10.65;;;;;;;-4.45;52.02;99592.88;4778434;29;20052;-79
2023/02/17 04:32:16;;;;;;;38.75;12.10;;;;;;;-4.45;51.76;99595.50;4770971;30;20094;-80
2023/02/17 04:34:41;;;;;;;40.45;11.48;;;;;;;-4.48;51.67;99587.72;4755953;30;20083;-78
2023/02/17 04:37:07;;;;;;;37.63;10.95;;;;;;;-4.48;51.24;99593.78;4756104;30;20110;-81
2023/02/17 04:39:33;;;;;;;39.55;13.05;;;;;;;-4.39;51.38;99587.59;4755247;30;20047;-78
2023/02/17 04:41:59;;;;;;;33.00;9.93;;;;;;;-4.18;51.62;99588.97;4785409;30;20056;-80
2023/02/17 04:44:25;;;;;;;37.65;10.77;;;;;;;-4.03;51.52;99598.31;4741268;30;20466;-81
2023/02/17 04:46:50;;;;;;;33.65;9.07;;;;;;;-3.93;50.92;99592.91;4770395;30;20467;-80
2023/02/17 04:49:16;;;;;;;27.48;10.95;;;;;;;-3.83;51.13;99585.78;4785740;30;20081;-82
2023/02/17 04:51:42;;;;;;;33.25;10.10;;;;;;;-3.79;50.72;99586.59;4771795;30;20058;-79
2023/02/17 04:54:07;;;;;;;39.20;11.15;;;;;;;-3.64;50.83;99590.66;4769836;30;20429;-78
2023/02/17 04:56:33;;;;;;;24.55;10.38;;;;;;;-3.64;50.69;99590.66;4770237;30;20242;-85
2023/02/17 04:58:59;;;;;;;29.13;10.30;;;;;;;-3.76;49.82;99597.84;4749863;30;20051;-78
2023/02/17 05:01:25;;;;;;;30.50;11.27;;;;;;;-3.97;50.07;99593.84;4770588;30;20097;-80
2023/02/17 05:03:51;;;;;;;34.20;11.50;;;;;;;-4.03;50.12;99588.72;4770302;30;20055;-81
2023/02/17 05:06:17;;;;;;;29.58;10.35;;;;;;;-3.87;50.53;99591.94;4755038;30;20096;-79
2023/02/17 05:08:42;;;;;;;41.72;11.32;;;;;;;-3.84;50.30;99594.47;4771361;30;20096;-79
2023/02/17 05:11:08;;;;;;;38.40;13.13;;;;;;;-3.87;50.50;99589.34;4770389;30;20532;-78
2023/02/17 05:13:34;;;;;;;41.60;11.50;;;;;;;-4.00;50.18;99582.59;4771663;30;20143;-77
2023/02/17 05:16:00;;;;;;;37.53;12.75;;;;;;;-3.91;50.44;99582.44;4770414;30;20056;-80
2023/02/17 05:18:26;;;;;;;41.13;12.80;;;;;;;-3.78;50.08;99589.16;4770970;30;20104;-78
2023/02/17 05:20:52;;;;;;;37.40;12.55;;;;;;;-3.48;50.36;99582.50;4785994;30;20055;-78
2023/02/17 05:23:18;;;;;;;42.05;12.48;;;;;;;-3.25;49.46;99587.28;4785491;30;20070;-79
2023/02/17 05:25:43;;;;;;;44.20;11.75;;;;;;;-3.41;49.26;99580.63;4789741;30;20500;-80
2023/02/17 05:28:09;;;;;;;36.72;11.73;;;;;;;-3.38;49.05;99577.97;4788380;30;20455;-80
2023/02/17 05:30:35;;;;;;;36.00;11.10;;;;;;;-3.32;48.81;99577.81;4773701;30;20137;-79
2023/02/17 05:33:00;;;;;;;40.00;12.52;;;;;;;-3.29;48.70;99577.78;4773511;30;20043;-79
2023/02/17 05:35:26;;;;;;;25.67;9.90;;;;;;;-3.30;48.50;99569.97;4787985;29;20143;-78
2023/02/17 05:37:52;;;;;;;43.72;11.32;;;;;;;-3.26;48.63;99572.47;4788519;30;20051;-79
2023/02/17 05:40:18;;;;;;;41.05;11.75;;;;;;;-3.07;48.81;99566.88;4789302;30;20051;-80
2023/02/17 05:42:44;;;;;;;40.08;11.32;;;;;;;-2.73;48.89;99567.84;4772978;30;20051;-79
2023/02/17 05:45:09;;;;;;;34.10;10.98;;;;;;;-2.44;48.53;99576.81;4788024;30;20051;-79
2023/02/17 05:47:35;;;;;;;33.83;10.40;;;;;;;-2.11;48.25;99558.53;4772814;30;20088;-80
2023/02/17 05:50:02;;;;;;;36.20;9.95;;;;;;;-1.84;46.67;99555.22;4772984;30;20078;-80
2023/02/17 05:52:28;;;;;;;35.40;10.60;;;;;;;-1.82;45.85;99558.66;4796943;29;20511;-78
2023/02/17 05:54:54;;;;;;;21.65;9.02;;;;;;;-1.58;45.72;99556.28;4772486;30;20058;-80
2023/02/17 05:57:20;;;;;;;24.17;7.75;;;;;;;-1.36;45.58;99552.16;4773178;30;20054;-80
2023/02/17 05:59:45;;;;;;;16.60;6.72;;;;;;;-1.15;43.90;99552.47;4789090;30;20500;-81
2023/02/17 06:02:11;;;;;;;14.65;5.55;;;;;;;-0.90;42.81;99545.59;4773532;30;20560;-80
2023/02/17 06:04:37;;;;;;;12.32;5.40;;;;;;;-0.72;43.45;99546.75;4773133;30;20197;-79
2023/02/17 06:07:03;;;;;;;11.55;4.97;;;;;;;-0.39;42.74;99549.25;4788961;29;20050;-80
2023/02/17 06:09:29;;;;;;;9.13;5.70;;;;;;;-0.08;41.68;99546.47;4806453;29;20049;-80
2023/02/17 06:11:54;;;;;;;12.70;5.15;;;;;;;0.12;41.41;99538.78;4775594;29;20523;-80
2023/02/17 06:14:20;;;;;;;8.45;4.55;;;;;;;0.27;40.41;99536.53;4790715;29;20054;-81
2023/02/17 06:16:46;;;;;;;7.47;4.20;;;;;;;0.27;39.67;99541.81;4790576;29;20085;-80
2023/02/17 06:19:12;;;;;;;11.82;5.32;;;;;;;0.29;39.84;99538.19;4775396;29;20054;-82
2023/02/17 06:21:38;;;;;;;8.23;4.88;;;;;;;0.35;39.85;99543.25;4790408;29;20054;-80
2023/02/17 06:24:04;;;;;;;9.05;4.72;;;;;;;0.51;39.12;99546.19;4775146;29;20069;-80
2023/02/17 06:26:29;;;;;;;12.45;4.75;;;;;;;0.54;39.30;99543.44;4790973;29;20047;-79
2023/02/17 06:28:55;;;;;;;10.93;5.15;;;;;;;0.51;38.36;99538.28;4775235;29;20039;-79
2023/02/17 06:31:21;;;;;;;19.80;5.32;;;;;;;0.45;38.77;99535.88;4775127;29;20039;-79
2023/02/17 06:33:50;;;;;;;17.55;5.55;;;;;;;0.32;38.79;99524.09;4796358;29;20066;-79
2023/02/17 06:36:16;;;;;;;21.75;5.75;;;;;;;0.28;39.15;99528.59;4757579;30;20043;-79
2023/02/17 06:38:41;;;;;;;12.60;5.53;;;;;;;0.44;38.70;99518.38;4772157;30;20428;-80
2023/02/17 06:41:07;;;;;;;11.23;4.95;;;;;;;0.72;38.65;99511.22;4772017;30;20043;-78
2023/02/17 06:43:33;;;;;;;11.05;4.53;;;;;;;0.58;37.29;99526.63;4772497;30;20047;-79
2023/02/17 06:45:58;;;;;;;20.63;5.00;;;;;;;0.35;36.89;99518.72;4788140;30;20054;-81
2023/02/17 06:48:24;;;;;;;7.57;4.70;;;;;;;0.28;37.63;99531.22;4786955;30;20058;-80
2023/02/17 06:50:50;;;;;;;11.00;4.93;;;;;;;0.13;37.68;99511.59;4787894;30;20055;-80
2023/02/17 06:53:16;;;;;;;11.38;4.75;;;;;;;0.13;37.79;99503.69;4787926;30;20522;-79
2023/02/17 06:55:43;;;;;;;10.93;4.95;;;;;;;0.02;37.69;99486.59;4788045;30;20134;-80
2023/02/17 06:58:09;;;;;;;17.50;5.40;;;;;;;-0.14;38.17;99475.75;4756821;30;20055;-79
2023/02/17 07:00:35;;;;;;;8.80;4.90;;;;;;;0.29;44.81;99484.75;4788296;30;20123;-77
2023/02/17 07:03:01;;;;;;;12.73;5.75;;;;;;;0.47;39.69;99476.19;4787632;30;20547;-78
2023/02/17 07:05:26;;;;;;;9.75;5.22;;;;;;;0.50;39.18;99481.34;4801721;29;20408;-77
2023/02/17 07:07:54;;;;;;;18.05;5.50;;;;;;;0.44;40.11;99484.19;4787686;30;20567;-77
2023/02/17 07:10:20;;;;;;;10.02;5.32;;;;;;;0.23;37.90;99491.09;4786481;30;20116;-77
2023/02/17 07:12:45;;;;;;;16.67;6.68;;;;;;;0.04;39.62;99479.50;4787706;30;20051;-76
2023/02/17 07:15:11;;;;;;;14.38;5.70;;;;;;;0.00;39.21;99491.91;4786630;30;20051;-76
2023/02/17 07:17:37;;;;;;;10.13;5.00;;;;;;;-0.21;39.24;99497.88;4756777;30;20093;-79
2023/02/17 07:20:03;;;;;;;10.68;5.65;;;;;;;-0.34;39.26;99477.28;4771797;30;20105;-87
2023/02/17 07:22:29;;;;;;;14.63;6.00;;;;;;;-0.54;39.18;99479.69;4739056;30;20090;-80
2023/02/17 07:24:55;;;;;;;11.73;5.10;;;;;;;-0.70;39.34;99478.50;4769560;30;20492;-80
2023/02/17 07:27:21;;;;;;;13.43;5.07;;;;;;;-0.85;39.22;99461.47;4768681;30;20066;-79
2023/02/17 07:29:47;;;;;;;12.38;5.22;;;;;;;-0.99;39.56;99468.00;4783869;30;20065;-78
2023/02/17 07:32:12;;;;;;;14.70;6.00;;;;;;;-1.05;40.04;99462.09;4754132;30;20142;-79
2023/02/17 07:34:38;;;;;;;13.60;5.40;;;;;;;-1.03;39.80;99462.88;4769639;30;20516;-80
2023/02/17 07:37:04;;;;;;;14.15;5.60;;;;;;;-0.95;39.93;99457.41;4739180;30;20068;-78
2023/02/17 07:39:30;;;;;;;14.98;5.65;;;;;;;-0.87;39.86;99451.00;4783437;30;20066;-79
2023/02/17 07:41:59;;;;;;;12.07;5.03;;;;;;;-0.91;39.96;99438.88;4768601;30;20561;-77
2023/02/17 07:44:28;;;;;;;12.32;5.82;;;;;;;-0.56;40.12;99429.03;4768481;30;20389;-76
2023/02/17 07:46:54;;;;;;;11.45;5.40;;;;;;;-0.09;39.37;99434.41;4783489;30;20066;-78
2023/02/17 07:49:19;;;;;;;11.07;5.07;;;;;;;0.44;39.29;99429.81;4783319;30;20051;-77
2023/02/17 07:51:45;;;;;;;13.70;5.63;;;;;;;0.50;37.91;99428.75;4738859;30;20513;-79
2023/02/17 07:54:12;;;;;;;10.65;5.60;;;;;;;0.58;38.15;99433.72;4757568;30;20082;-78
2023/02/17 07:56:38;;;;;;;10.55;5.55;;;;;;;1.02;38.41;99433.78;4786552;30;20066;-78
2023/02/17 07:59:07;;;;;;;16.77;6.35;;;;;;;1.32;38.08;99429.91;4787371;29;20051;-79
2023/02/17 08:01:36;;;;;;;14.00;5.88;;;;;;;1.86;37.37;99419.75;4786109;30;20066;-79
2023/02/17 08:04:02;;;;;;;12.30;5.68;;;;;;;2.10;36.32;99417.81;4785996;30;20043;-80
2023/02/17 08:06:29;;;;;;;12.90;5.80;;;;;;;2.27;36.25;99417.06;4785647;30;20108;-80
2023/02/17 08:14:27;;;;;;;29.45;6.90;;;;;;;2.89;35.34;99414.13;4773151;29;20051;-79
2023/02/17 08:16:53;;;;;;;17.17;6.57;;;;;;;2.68;35.00;99405.47;4769845;30;20051;-79
2023/02/17 08:19:19;;;;;;;15.45;5.68;;;;;;;2.43;34.80;99404.88;4740249;30;20054;-77
2023/02/17 08:21:46;;;;;;;10.40;5.68;;;;;;;2.01;34.49;99397.97;4775515;30;20091;-79
2023/02/17 08:24:12;;;;;;;15.57;5.93;;;;;;;1.81;35.62;99412.03;4791296;30;20526;-80
2023/02/17 08:26:38;;;;;;;12.10;6.20;;;;;;;1.66;36.05;99402.16;4773136;30;20051;-77
2023/02/17 08:29:04;;;;;;;12.10;6.30;;;;;;;1.57;35.41;99408.66;4773111;30;20051;-77
2023/02/17 08:31:33;;;;;;;14.30;5.78;;;;;;;1.58;35.62;99405.13;4773264;30;20420;-80
2023/02/17 08:34:06;;;;;;;11.80;5.65;;;;;;;1.43;36.40;99395.22;4788834;30;20047;-77
2023/02/17 08:36:33;;;;;;;10.57;5.85;;;;;;;1.55;36.35;99394.72;4773012;30;20047;-86
2023/02/17 08:38:59;;;;;;;9.95;5.78;;;;;;;1.73;36.18;99393.06;4772928;30;20102;-83
2023/02/17 08:41:35;;;;;;;11.65;6.20;;;;;;;1.98;35.92;99392.84;4772760;30;20416;-77
2023/02/17 08:44:06;;;;;;;21.13;6.43;;;;;;;2.22;36.19;99395.28;4782703;29;20039;-79
2023/02/17 08:46:34;;;;;;;14.23;5.70;;;;;;;2.44;35.45;99385.47;4788058;29;20059;-78
2023/02/17 08:49:00;;;;;;;11.55;6.32;;;;;;;2.54;35.33;99392.06;4772925;30;20054;-80
2023/02/17 08:51:25;;;;;;;15.90;6.28;;;;;;;2.73;35.41;99370.94;4773693;30;20059;-78
2023/02/17 08:53:55;;;;;;;11.35;6.55;;;;;;;2.71;35.02;99375.44;4773468;30;20100;-78
2023/02/17 08:56:22;;;;;;;15.60;6.40;;;;;;;2.97;34.85;99379.47;4789410;30;20051;-79
2023/02/17 08:58:49;;;;;;;17.70;7.03;;;;;;;2.97;34.63;99384.75;4773353;30;20054;-78
2023/02/17 09:01:17;;;;;;;11.45;6.45;;;;;;;3.04;34.82;99380.00;4773302;30;20055;-79
2023/02/17 09:03:44;;;;;;;23.42;7.00;;;;;;;3.04;34.83;99375.59;4803273;29;20507;-78
2023/02/17 09:06:10;;;;;;;13.45;6.40;;;;;;;2.99;34.59;99376.75;4790014;29;20468;-80
2023/02/17 09:08:38;;;;;;;10.45;5.97;;;;;;;3.09;34.94;99375.38;4805879;29;20189;-79
2023/02/17 09:11:04;;;;;;;16.05;7.00;;;;;;;3.06;34.49;99371.09;4789901;29;20053;-78
2023/02/17 09:13:30;;;;;;;17.10;6.93;;;;;;;2.77;35.27;99376.91;4789511;29;20445;-80
2023/02/17 09:15:57;;;;;;;12.38;6.32;;;;;;;2.81;35.35;99367.94;4790700;29;20061;-78
2023/02/17 09:18:23;;;;;;;22.02;7.57;;;;;;;2.63;35.40;99359.09;4790228;29;20400;-80
2023/02/17 09:20:49;;;;;;;20.58;7.47;;;;;;;2.72;35.15;99368.38;4791531;29;20057;-82
2023/02/17 09:23:15;;;;;;;19.92;7.00;;;;;;;2.75;35.24;99363.81;4759022;30;20059;-77
2023/02/17 09:25:41;;;;;;;17.48;6.75;;;;;;;2.41;35.48;99359.25;4787672;29;20047;-78
2023/02/17 09:28:07;;;;;;;11.18;6.70;;;;;;;2.54;35.53;99362.19;4788752;29;20571;-78
2023/02/17 09:30:33;;;;;;;12.07;6.80;;;;;;;2.56;35.29;99357.69;4789095;29;20131;-78
2023/02/17 09:32:59;;;;;;;16.50;6.88;;;;;;;2.58;34.94;99361.09;4786998;30;20508;-78
2023/02/17 09:35:28;;;;;;;18.67;6.78;;;;;;;2.64;35.60;99355.53;4775779;29;20079;-77
2023/02/17 09:37:54;;;;;;;14.82;6.32;;;;;;;2.75;35.32;99360.31;4761495;30;20098;-80
2023/02/17 09:40:27;;;;;;;15.32;7.10;;;;;;;2.87;35.17;99363.22;4773063;30;20050;-78
2023/02/17 09:42:53;;;;;;;20.70;7.18;;;;;;;2.97;35.36;99358.34;4757812;30;20047;-78
2023/02/17 09:45:24;;;;;;;11.45;6.65;;;;;;;2.91;35.00;99361.28;4772856;30;20055;-79
2023/02/17 09:47:54;;;;;;;11.48;6.68;;;;;;;2.92;34.86;99352.41;4772985;30;20126;-78
2023/02/17 09:50:58;;;;;;;;;;;;;;;3.03;34.81;99347.47;4787403;30;20402;-77
2023/02/17 09:53:42;;;;;;;13.25;6.60;;;;;;;3.07;35.78;99338.47;4725839;30;19973;-78
2023/02/17 09:56:13;;;;;;;20.13;6.85;;;;;;;2.99;35.37;99351.19;4740089;30;20108;-75
2023/02/17 09:58:42;;;;;;;19.42;6.38;;;;;;;3.01;34.93;99337.91;4769033;30;20048;-78
2023/02/17 10:01:18;;;;;;;13.90;6.65;;;;;;;3.10;34.85;99348.03;4754855;30;20047;-79
2023/02/17 10:03:50;;;;;;;13.13;6.72;;;;;;;2.99;34.95;99339.78;4769823;30;20047;-80
2023/02/17 10:06:25;;;;;;;14.50;6.90;;;;;;;3.15;34.79;99341.56;4776953;30;20040;-76
2023/02/17 10:09:11;;;;;;;22.83;7.78;;;;;;;3.30;34.44;99333.81;4750032;30;20047;-78
2023/02/17 10:11:43;;;;;;;14.52;7.75;;;;;;;3.47;34.89;99340.91;4769344;30;20515;-77
2023/02/17 10:14:18;;;;;;;25.73;7.63;;;;;;;3.57;34.42;99331.56;4770761;30;20048;-78
2023/02/17 10:16:53;;;;;;;13.60;7.53;;;;;;;3.55;33.92;99328.16;4783329;30;20055;-77
2023/02/17 10:19:50;;;;;;;13.90;7.30;;;;;;;3.13;34.64;99324.97;4770309;30;20548;-84
2023/02/17 10:22:19;;;;;;;54.75;12.35;;;;;;;3.05;35.18;99328.94;4771477;30;20101;-77
2023/02/17 10:24:45;;;;;;;13.00;7.63;;;;;;;3.07;35.07;99322.63;4787035;30;20050;-77
2023/02/17 10:27:14;;;;;;;19.13;7.40;;;;;;;2.70;35.46;99328.00;4787708;30;20051;-75
2023/02/17 10:30:06;;;;;;;83.20;12.80;;;;;;;2.60;36.03;99324.94;4786821;30;20078;-78
2023/02/17 10:33:00;;;;;;;18.05;6.90;;;;;;;2.88;35.40;99311.25;4756606;30;20059;-78
2023/02/17 10:35:58;;;;;;;17.27;6.93;;;;;;;3.20;35.22;99306.16;4771618;30;20051;-75
2023/02/17 10:38:47;;;;;;;18.50;7.28;;;;;;;3.22;35.13;99299.03;4768333;30;20542;-78
2023/02/17 10:41:17;;;;;;;15.73;6.57;;;;;;;3.31;35.02;99299.41;4772299;30;20047;-78
2023/02/17 10:43:44;;;;;;;12.77;6.97;;;;;;;3.40;34.86;99295.44;4786829;29;20059;-77
2023/02/17 10:46:16;;;;;;;15.65;7.07;;;;;;;3.50;34.69;99303.72;4771516;30;20496;-78
2023/02/17 10:48:53;;;;;;;17.63;7.55;;;;;;;3.43;34.45;99302.38;4787688;30;20584;-77
2023/02/17 10:51:24;;;;;;;13.15;6.45;;;;;;;3.46;34.95;99303.06;4787831;30;20056;-80
2023/02/17 10:53:59;;;;;;;17.27;6.43;;;;;;;3.46;34.97;99300.41;4786831;30;20100;-78
2023/02/17 10:56:31;;;;;;;16.08;6.72;;;;;;;3.06;35.01;99299.78;4756626;30;20079;-79
2023/02/17 10:59:00;;;;;;;11.95;6.57;;;;;;;3.07;35.74;99290.94;4788279;29;20051;-79
2023/02/17 11:01:27;;;;;;;12.07;6.47;;;;;;;3.20;35.43;99296.47;4772315;29;20103;-79
2023/02/17 11:04:05;;;;;;;16.83;7.47;;;;;;;3.28;34.81;99294.28;4758826;29;20138;-80
2023/02/17 11:06:47;;;;;;;14.60;6.85;;;;;;;3.28;34.96;99294.28;4788249;29;20047;-78
2023/02/17 11:09:33;;;;;;;17.00;7.90;;;;;;;3.19;35.41;99288.59;4770583;29;20124;-78
2023/02/17 11:12:00;;;;;;;12.90;7.07;;;;;;;2.95;35.33;99288.91;4800873;29;20085;-78
2023/02/17 11:14:29;;;;;;;10.95;5.88;;;;;;;2.71;35.90;99287.47;4803973;29;20046;-78
2023/02/17 11:17:20;;;;;;;17.23;6.40;;;;;;;2.37;36.78;99292.59;4804560;29;20118;-78
2023/02/17 11:20:01;;;;;;;13.32;6.65;;;;;;;1.96;38.26;99291.88;4774215;29;20051;-78
2023/02/17 11:22:44;;;;;;;16.20;7.40;;;;;;;1.75;39.09;99284.94;4799619;29;20479;-77
2023/02/17 11:25:27;;;;;;;19.85;7.13;;;;;;;1.78;40.00;99284.81;4774654;30;20106;-77
2023/02/17 11:27:58;;;;;;;13.38;7.25;;;;;;;1.72;41.06;99282.44;4771556;30;20055;-77
2023/02/17 11:30:26;;;;;;;16.90;7.45;;;;;;;1.64;41.08;99286.28;4766412;29;20408;-77
2023/02/17 11:32:56;;;;;;;16.58;7.28;;;;;;;1.64;41.11;99278.38;4804794;29;20058;-77
2023/02/17 11:35:36;;;;;;;19.73;6.97;;;;;;;1.44;42.08;99284.53;4805965;29;20051;-77
2023/02/17 11:38:16;;;;;;;15.38;7.28;;;;;;;1.26;42.01;99284.47;4788968;29;20423;-77
2023/02/17 11:40:55;;;;;;;16.35;7.63;;;;;;;1.08;42.61;99286.94;4787136;29;20050;-76
2023/02/17 11:43:22;;;;;;;25.20;7.95;;;;;;;0.85;44.51;99281.81;4787077;29;20042;-76